ΕΜΥ, Εθνική Μετεωρολογική Υπηρεσία - Δελτία Καιρού, Προγνώσεις

ΑΕΡΟΝΑΥΤΙΛΙΑ

GREEK AIRPORTS CODES

LGAT 071300Z AUTO 36009G20KT 240V110 //// // ////// 12/03 Q1021 RE//=

EUROPEAN AIRPORTS CODES

LFPO 071300Z AUTO 08011KT 060V120 CAVOK 21/08 Q1026=